createdAt,value
2023-01-28T00:39:56.501Z,3.30
2023-01-28T01:17:02.699Z,4.30
2023-01-28T01:20:33.199Z,3.50
2023-01-28T01:30:12.256Z,3.15
2023-01-28T01:36:56.212Z,3.25
2023-01-28T01:40:12.385Z,2.80
2023-01-28T01:43:08.802Z,3.05
2023-01-28T01:45:42.367Z,2.67
2023-01-28T02:01:16.752Z,2.72
2023-01-28T02:16:31.295Z,3.55
2023-01-28T02:19:41.281Z,3.22
2023-01-28T02:38:42.003Z,3.30
2023-01-28T02:42:13.881Z,3.33
2023-01-28T03:43:04.483Z,3.38
2023-01-28T03:45:41.620Z,3.03
2023-01-28T04:10:11.568Z,3.78
2023-01-28T04:12:59.156Z,3.92
2023-01-28T04:16:59.126Z,5.18
2023-01-28T04:20:35.064Z,4.72
2023-01-28T04:26:04.494Z,6.72
2023-01-28T04:30:14.590Z,7.82
2023-01-28T04:33:12.958Z,7.47
2023-01-28T04:36:06.116Z,7.75
2023-01-28T05:07:31.327Z,8.32
2023-01-28T05:38:00.608Z,12.65
2023-01-28T05:53:09.519Z,14.82
2023-01-28T06:21:52.883Z,17.33
2023-01-28T06:25:26.607Z,18.52
2023-01-28T06:28:29.372Z,18.25
2023-01-28T06:31:44.132Z,17.90
2023-01-28T06:43:30.353Z,17.50
2023-01-28T06:50:04.972Z,19.48
2023-01-28T06:59:09.465Z,19.60
2023-01-28T07:01:49.429Z,20.15
2023-01-28T07:04:21.664Z,20.80
2023-01-28T07:23:10.249Z,19.85
2023-01-28T07:26:52.268Z,21.45
2023-01-28T07:37:07.805Z,20.48
2023-01-28T07:39:52.909Z,20.25
2023-01-28T07:42:47.985Z,20.77
2023-01-28T08:06:05.382Z,20.65
2023-01-28T08:08:39.981Z,19.23
2023-01-28T08:19:27.889Z,21.75
2023-01-28T08:22:10.711Z,20.27
2023-01-28T08:45:47.578Z,19.63
2023-01-28T08:48:57.752Z,21.52
2023-01-28T08:51:38.325Z,20.75
2023-01-28T08:54:27.520Z,21.70
2023-01-28T08:57:00.842Z,21.83
2023-01-28T09:00:03.664Z,21.63
2023-01-28T09:05:24.092Z,21.48
2023-01-28T09:08:18.089Z,21.83
2023-01-28T09:14:07.194Z,22.38
2023-01-28T09:16:51.534Z,21.02
2023-01-28T09:19:24.128Z,21.95
2023-01-28T09:22:07.743Z,21.95
2023-01-28T09:25:25.897Z,21.30
2023-01-28T09:28:07.002Z,22.92
2023-01-28T09:41:19.865Z,20.63
2023-01-28T09:44:36.927Z,21.80
2023-01-28T09:52:05.630Z,21.30
2023-01-28T09:55:13.519Z,19.35
2023-01-28T09:58:11.539Z,19.40
2023-01-28T10:01:25.169Z,18.77
2023-01-28T10:04:23.939Z,18.15
2023-01-28T10:07:28.386Z,17.60
2023-01-28T10:10:35.795Z,17.48
2023-01-28T10:13:58.108Z,16.95
2023-01-28T10:16:58.371Z,16.67
2023-01-28T10:19:49.553Z,16.45
2023-01-28T10:22:39.761Z,16.52
2023-01-28T10:29:01.061Z,15.55
2023-01-28T10:31:44.537Z,17.23
2023-01-28T10:34:19.944Z,16.73
2023-01-28T10:36:52.945Z,16.30
2023-01-28T10:39:30.804Z,14.88
2023-01-28T10:42:09.164Z,16.27
2023-01-28T10:44:44.862Z,15.93
2023-01-28T10:47:30.915Z,16.40
2023-01-28T10:50:05.479Z,16.38
2023-01-28T10:52:53.039Z,16.77
2023-01-28T10:55:30.806Z,15.30
2023-01-28T10:58:05.529Z,15.60
2023-01-28T11:00:38.540Z,16.05
2023-01-28T11:03:19.389Z,15.80
2023-01-28T11:05:53.868Z,16.27
2023-01-28T11:08:29.548Z,16.02
2023-01-28T11:11:01.604Z,15.52
2023-01-28T11:13:33.823Z,15.52
2023-01-28T11:16:18.534Z,16.27
2023-01-28T11:19:08.443Z,14.13
2023-01-28T11:21:41.336Z,14.75
2023-01-28T11:24:23.335Z,15.65
2023-01-28T11:26:58.732Z,14.73
2023-01-28T11:29:34.863Z,14.95
2023-01-28T11:32:21.352Z,16.52
2023-01-28T11:35:00.546Z,16.33
2023-01-28T11:37:35.822Z,14.65
2023-01-28T11:40:23.188Z,17.13
2023-01-28T11:43:00.599Z,16.58
2023-01-28T11:45:56.822Z,15.45
2023-01-28T11:48:54.838Z,15.75
2023-01-28T11:52:13.456Z,14.52
2023-01-28T11:54:58.454Z,15.05
2023-01-28T11:58:04.887Z,14.45
2023-01-28T12:01:01.151Z,14.20
2023-01-28T12:03:53.705Z,14.27
2023-01-28T12:06:40.522Z,15.98
2023-01-28T12:09:52.886Z,15.52
2023-01-28T12:13:10.020Z,15.15
2023-01-28T12:16:01.638Z,14.15
2023-01-28T12:18:57.624Z,14.65
2023-01-28T12:22:10.956Z,13.38
2023-01-28T12:25:17.391Z,12.07
2023-01-28T12:28:36.419Z,13.23
2023-01-28T12:31:45.657Z,13.65
2023-01-28T12:34:56.147Z,12.93
2023-01-28T12:37:49.243Z,11.80
2023-01-28T12:40:54.744Z,13.63
2023-01-28T12:43:57.087Z,12.40
2023-01-28T12:47:04.305Z,11.65
2023-01-28T12:49:54.592Z,13.02
2023-01-28T12:52:35.556Z,12.63
2023-01-28T12:55:19.583Z,12.85
2023-01-28T12:57:53.730Z,12.85
2023-01-28T13:00:42.633Z,15.43
2023-01-28T13:03:39.142Z,13.63
2023-01-28T13:06:30.014Z,14.50
2023-01-28T13:09:14.291Z,14.95
2023-01-28T13:11:50.176Z,13.70
2023-01-28T13:14:31.210Z,12.82
2023-01-28T13:17:26.200Z,13.60
2023-01-28T13:20:01.301Z,13.00
2023-01-28T13:22:38.069Z,13.70
2023-01-28T13:25:28.190Z,14.98
2023-01-28T13:28:08.980Z,14.73
2023-01-28T13:30:50.491Z,14.90
2023-01-28T13:33:39.009Z,14.82
2023-01-28T13:36:35.248Z,15.48
2023-01-28T13:39:15.196Z,15.75
2023-01-28T13:41:48.497Z,15.88
2023-01-28T13:44:34.120Z,15.30
2023-01-28T13:47:08.884Z,15.13
2023-01-28T13:49:44.798Z,15.38
2023-01-28T13:52:57.920Z,14.27
2023-01-28T13:55:44.555Z,14.77
2023-01-28T13:59:17.018Z,15.40
2023-01-28T14:02:19.823Z,15.27
2023-01-28T14:05:16.332Z,14.40
2023-01-28T14:08:22.467Z,14.07
2023-01-28T14:11:46.163Z,14.73
2023-01-28T14:14:30.472Z,13.30
2023-01-28T14:17:14.530Z,12.85
2023-01-28T14:19:59.885Z,12.23
2023-01-28T14:22:32.092Z,13.45
2023-01-28T14:26:20.869Z,11.55
2023-01-28T14:29:10.877Z,11.85
2023-01-28T14:31:43.475Z,12.23
2023-01-28T14:34:26.596Z,13.05
2023-01-28T14:37:22.440Z,12.30
2023-01-28T14:40:07.891Z,12.73
2023-01-28T14:42:43.953Z,11.60
2023-01-28T14:45:38.367Z,11.15
2023-01-28T14:48:22.487Z,11.30
2023-01-28T14:51:31.217Z,10.60
2023-01-28T14:54:28.612Z,11.65
2023-01-28T14:57:47.787Z,11.90
2023-01-28T15:00:27.239Z,11.82
2023-01-28T15:02:59.985Z,11.60
2023-01-28T15:05:32.290Z,11.93
2023-01-28T15:08:04.699Z,12.05
2023-01-28T15:10:38.471Z,11.38
2023-01-28T15:13:24.166Z,13.55
2023-01-28T15:18:52.967Z,12.70
2023-01-28T15:21:28.032Z,13.18
2023-01-28T15:24:02.881Z,11.70
2023-01-28T15:26:35.173Z,10.60
2023-01-28T15:29:07.115Z,11.75
2023-01-28T15:32:29.086Z,10.20
2023-01-28T15:35:01.559Z,10.15
2023-01-28T15:37:33.681Z,9.55
2023-01-28T15:40:07.382Z,9.75
2023-01-28T15:42:40.176Z,10.75
2023-01-28T15:45:21.666Z,10.18
2023-01-28T15:49:01.738Z,10.32
2023-01-28T15:51:34.326Z,11.43
2023-01-28T15:54:09.759Z,12.77
2023-01-28T15:56:42.042Z,13.00
2023-01-28T15:59:26.948Z,14.02
2023-01-28T16:02:22.507Z,14.27
2023-01-28T16:05:08.351Z,12.43
2023-01-28T16:07:46.535Z,12.55
2023-01-28T16:10:27.515Z,13.05
2023-01-28T16:13:22.389Z,12.13
2023-01-28T16:15:57.043Z,13.05
2023-01-28T16:18:49.225Z,12.88
2023-01-28T16:21:51.456Z,12.90
2023-01-28T16:24:27.957Z,12.85
2023-01-28T16:27:09.825Z,13.88
2023-01-28T16:29:41.926Z,13.88
2023-01-28T16:32:39.250Z,14.77
2023-01-28T16:35:42.938Z,15.73
2023-01-28T16:38:22.905Z,14.18
2023-01-28T16:40:54.904Z,14.20
2023-01-28T16:43:26.907Z,13.43
2023-01-28T16:45:58.956Z,14.80
2023-01-28T16:48:31.166Z,15.18
2023-01-28T16:51:04.814Z,14.88
2023-01-28T16:53:39.685Z,16.15
2023-01-28T16:56:43.963Z,16.02
2023-01-28T16:59:27.283Z,15.48
2023-01-28T17:01:59.328Z,15.90
2023-01-28T17:04:31.309Z,15.50
2023-01-28T17:07:03.792Z,16.95
2023-01-28T17:09:35.896Z,16.40
2023-01-28T17:12:07.992Z,15.80
2023-01-28T17:14:40.125Z,16.10
2023-01-28T17:17:12.116Z,16.98
2023-01-28T17:19:44.105Z,16.50
2023-01-28T17:22:16.092Z,15.05
2023-01-28T17:24:48.100Z,15.25
2023-01-28T17:27:20.206Z,15.35
2023-01-28T17:29:53.855Z,16.00
2023-01-28T17:32:25.906Z,16.60
2023-01-28T17:34:57.956Z,14.02
2023-01-28T17:37:30.409Z,15.27
2023-01-28T17:43:07.180Z,16.20
2023-01-28T17:45:39.949Z,16.30
2023-01-28T17:48:12.139Z,18.13
2023-01-28T17:50:44.088Z,16.08
2023-01-28T17:53:16.075Z,17.25
2023-01-28T17:55:48.113Z,15.75
2023-01-28T17:58:20.216Z,16.13
2023-01-28T18:00:52.616Z,15.52
2023-01-28T18:03:24.672Z,16.50
2023-01-28T18:06:01.413Z,15.10
2023-01-28T18:08:35.384Z,15.07
2023-01-28T18:11:09.255Z,16.02
2023-01-28T18:13:42.757Z,16.38
2023-01-28T18:16:18.384Z,17.35
2023-01-28T18:18:51.163Z,15.18
2023-01-28T18:21:42.960Z,16.50
2023-01-28T18:24:24.720Z,15.37
2023-01-28T18:27:00.061Z,16.38
2023-01-28T18:29:32.396Z,16.40
2023-01-28T18:32:05.331Z,15.10
2023-01-28T18:34:37.434Z,14.85
2023-01-28T18:37:10.087Z,16.92
2023-01-28T18:39:43.532Z,15.98
2023-01-28T18:42:16.617Z,15.20
2023-01-28T18:47:43.844Z,15.45
2023-01-28T18:50:16.285Z,16.75
2023-01-28T18:52:48.251Z,15.82
2023-01-28T21:00:35.190Z,15.50
2023-01-28T21:03:07.211Z,15.50
2023-01-28T21:05:39.382Z,15.18
2023-01-28T21:08:12.193Z,17.17
2023-01-28T21:10:44.773Z,15.77
2023-01-28T21:13:16.907Z,15.90
2023-01-28T21:15:54.805Z,16.25
2023-01-28T21:56:10.004Z,15.57
2023-01-28T21:59:00.603Z,13.63
2023-01-28T22:01:33.038Z,15.48
2023-01-28T22:04:05.285Z,14.38
2023-01-28T22:06:37.415Z,14.13
2023-01-28T22:09:14.370Z,14.35
2023-01-28T22:11:46.454Z,14.88
2023-01-28T22:14:19.180Z,14.15
2023-01-28T22:16:52.539Z,15.07
2023-01-28T22:19:24.857Z,13.57
2023-01-28T22:21:56.806Z,14.43
2023-01-28T22:24:30.382Z,13.27
2023-01-28T22:27:02.694Z,14.18
2023-01-28T22:29:34.718Z,15.70
2023-01-28T22:32:06.822Z,15.25
2023-01-28T22:34:38.953Z,14.35
2023-01-28T22:37:10.995Z,14.27
2023-01-28T22:39:43.044Z,14.13
2023-01-28T22:42:15.044Z,15.27
2023-01-28T22:44:47.047Z,15.30
2023-01-28T22:47:19.147Z,14.05
2023-01-28T22:49:51.086Z,14.00
2023-01-28T22:52:26.156Z,14.18
2023-01-28T22:54:58.492Z,14.90
2023-01-28T22:57:30.541Z,13.98
2023-01-28T23:00:04.817Z,14.48
2023-01-28T23:02:36.792Z,14.40
2023-01-28T23:05:09.168Z,14.88
2023-01-28T23:07:41.155Z,15.90
2023-01-28T23:10:13.857Z,14.60
2023-01-28T23:12:54.606Z,13.82
2023-01-28T23:15:45.029Z,14.45
2023-01-28T23:18:43.355Z,14.60
2023-01-28T23:21:42.627Z,14.27
2023-01-28T23:24:20.913Z,16.08
2023-01-28T23:26:59.410Z,15.27
2023-01-28T23:29:32.144Z,14.25
2023-01-28T23:32:24.504Z,16.00
2023-01-28T23:34:57.404Z,14.65
2023-01-28T23:37:30.688Z,15.07
2023-01-28T23:40:51.659Z,17.13
2023-01-28T23:43:23.737Z,14.75
2023-01-28T23:45:55.729Z,16.27
2023-01-28T23:48:28.030Z,15.15
2023-01-28T23:51:00.025Z,16.58
2023-01-28T23:53:31.996Z,16.48
2023-01-28T23:56:07.825Z,14.82
2023-01-28T23:58:43.833Z,16.75
